Terminal Aerodrome Forecast
Issued by NWS Wakefield, VA

Home | Current Version | Previous Version | Text Only | Print | Product List | Glossary On
Versions: 1 2 3 4 5 6 7 8 9 10 11 12 13 14
000
FTUS41 KAKQ 171740
TAFRIC
TAF
KRIC 171740Z 1718/1818 13009KT P6SM VCSH OVC040
     FM172000 11007KT 5SM -RA BR SCT015 OVC025
     FM172230 05006KT 2SM RA BR OVC007
     FM180300 VRB03KT 4SM -RA BR OVC015
     FM180600 30006KT P6SM BKN025
     FM180900 34005KT P6SM SCT040=

USA.gov is the U.S. government's official web portal to all federal, state and local government web resources and services.